createdAt,value
2018-10-01T00:01:49.123Z,10.83
2018-10-01T00:04:17.158Z,11.77
2018-10-01T00:06:45.189Z,12.63
2018-10-01T00:09:13.300Z,12.70
2018-10-01T00:11:41.311Z,12.10
2018-10-01T00:14:09.409Z,11.53
2018-10-01T00:16:37.419Z,12.07
2018-10-01T00:19:10.105Z,12.07
2018-10-01T00:21:43.817Z,11.10
2018-10-01T00:24:12.025Z,13.40
2018-10-01T00:26:40.165Z,22.70
2018-10-01T00:29:08.365Z,13.47
2018-10-01T00:31:36.351Z,17.77
2018-10-01T00:34:04.471Z,10.17
2018-10-01T00:36:32.450Z,11.87
2018-10-01T00:39:00.670Z,10.73
2018-10-01T00:41:28.812Z,15.30
2018-10-01T00:43:56.953Z,10.83
2018-10-01T00:46:24.968Z,10.40
2018-10-01T00:48:52.969Z,11.27
2018-10-01T00:51:21.191Z,12.80
2018-10-01T00:53:49.308Z,11.27
2018-10-01T00:56:17.419Z,17.13
2018-10-01T00:58:45.576Z,14.37
2018-10-01T01:01:13.800Z,12.57
2018-10-01T01:03:41.908Z,13.93
2018-10-01T01:06:10.147Z,16.93
2018-10-01T01:08:38.072Z,14.43
2018-10-01T01:11:06.132Z,14.00
2018-10-01T01:13:34.604Z,12.80
2018-10-01T01:16:03.082Z,14.87
2018-10-01T01:18:31.261Z,11.73
2018-10-01T01:20:59.700Z,14.07
2018-10-01T01:23:27.940Z,11.17
2018-10-01T01:25:56.220Z,13.17
2018-10-01T01:28:24.641Z,13.07
2018-10-01T01:30:52.627Z,10.73
2018-10-01T01:33:20.598Z,13.17
2018-10-01T01:35:48.750Z,10.37
2018-10-01T01:38:16.957Z,13.17
2018-10-01T01:40:45.098Z,10.60
2018-10-01T01:43:13.096Z,12.47
2018-10-01T01:45:41.656Z,12.83
2018-10-01T01:48:09.622Z,10.57
2018-10-01T01:50:37.845Z,10.63
2018-10-01T01:53:08.209Z,11.30
2018-10-01T01:55:36.517Z,10.23
2018-10-01T01:58:04.719Z,13.80
2018-10-01T02:00:33.018Z,11.77
2018-10-01T02:03:01.009Z,13.47
2018-10-01T02:05:29.014Z,13.90
2018-10-01T02:07:57.023Z,14.40
2018-10-01T02:10:25.158Z,15.27
2018-10-01T02:12:53.251Z,14.10
2018-10-01T02:15:21.305Z,10.73
2018-10-01T02:17:49.294Z,14.20
2018-10-01T02:20:17.408Z,16.90
2018-10-01T02:22:45.334Z,17.33
2018-10-01T02:25:13.364Z,14.73
2018-10-01T02:27:41.353Z,15.60
2018-10-01T02:30:09.445Z,17.17
2018-10-01T02:32:37.417Z,18.53
2018-10-01T02:35:05.503Z,14.57
2018-10-01T02:37:33.484Z,14.33
2018-10-01T02:40:01.436Z,13.87
2018-10-01T02:42:29.684Z,14.23
2018-10-01T02:44:57.633Z,15.87
2018-10-01T02:47:25.666Z,18.37
2018-10-01T02:49:53.664Z,16.07
2018-10-01T02:52:27.179Z,14.67
2018-10-01T02:54:55.168Z,15.20
2018-10-01T02:57:23.178Z,14.73
2018-10-01T02:59:51.186Z,17.10
2018-10-01T03:02:19.385Z,14.10
2018-10-01T03:04:47.613Z,19.30
2018-10-01T03:07:15.845Z,13.77
2018-10-01T03:09:44.073Z,16.17
2018-10-01T03:12:12.325Z,16.43
2018-10-01T03:14:40.605Z,15.20
2018-10-01T03:17:08.773Z,19.17
2018-10-01T03:19:36.879Z,15.27
2018-10-01T03:22:05.115Z,16.80
2018-10-01T03:24:33.260Z,14.83
2018-10-01T03:27:01.401Z,21.77
2018-10-01T03:29:29.589Z,18.50
2018-10-01T03:31:57.648Z,21.93
2018-10-01T03:34:25.595Z,16.83
2018-10-01T03:36:53.754Z,17.00
2018-10-01T03:39:21.756Z,19.80
2018-10-01T03:41:50.066Z,18.87
2018-10-01T03:44:18.093Z,19.20
2018-10-01T03:46:46.256Z,18.30
2018-10-01T03:49:14.268Z,16.47
2018-10-01T03:51:42.415Z,16.53
2018-10-01T03:54:10.424Z,17.87
2018-10-01T03:56:38.606Z,16.77
2018-10-01T03:59:06.815Z,17.83
2018-10-01T04:01:35.056Z,16.03
2018-10-01T04:04:03.176Z,17.90
2018-10-01T04:06:31.664Z,13.90
2018-10-01T04:08:59.974Z,12.40
2018-10-01T04:11:28.086Z,15.10
2018-10-01T04:13:56.404Z,16.43
2018-10-01T04:16:24.583Z,17.17
2018-10-01T04:18:52.723Z,11.37
2018-10-01T04:21:20.692Z,13.27
2018-10-01T04:23:48.788Z,16.00
2018-10-01T04:26:17.061Z,13.97
2018-10-01T04:28:45.359Z,13.87
2018-10-01T04:31:13.560Z,10.47
2018-10-01T04:33:41.747Z,14.30
2018-10-01T04:36:09.899Z,13.73
2018-10-01T04:38:38.319Z,12.27
2018-10-01T04:41:07.040Z,14.90
2018-10-01T04:43:35.209Z,20.93
2018-10-01T04:46:03.482Z,13.70
2018-10-01T04:48:31.680Z,13.40
2018-10-01T04:50:59.907Z,17.90
2018-10-01T04:53:28.188Z,12.27
2018-10-01T04:55:56.328Z,15.83
2018-10-01T04:58:24.783Z,10.10
2018-10-01T05:00:52.833Z,12.63
2018-10-01T05:03:20.928Z,9.67
2018-10-01T05:05:49.080Z,13.33
2018-10-01T05:08:17.328Z,12.47
2018-10-01T05:10:45.519Z,12.60
2018-10-01T05:13:13.808Z,12.07
2018-10-01T05:15:41.959Z,11.97
2018-10-01T05:18:10.148Z,12.27
2018-10-01T05:20:38.220Z,18.40
2018-10-01T05:23:06.519Z,10.90
2018-10-01T05:25:34.667Z,14.60
2018-10-01T05:28:02.999Z,14.27
2018-10-01T05:30:31.160Z,11.73
2018-10-01T05:32:59.447Z,12.90
2018-10-01T05:35:27.590Z,9.73
2018-10-01T05:37:55.918Z,18.27
2018-10-01T05:40:25.997Z,11.20
2018-10-01T05:42:54.188Z,14.57
2018-10-01T05:45:22.295Z,10.93
2018-10-01T05:47:50.587Z,14.10
2018-10-01T05:50:18.747Z,12.20
2018-10-01T05:52:47.027Z,11.80
2018-10-01T05:55:15.256Z,11.63
2018-10-01T05:57:43.540Z,10.93
2018-10-01T06:00:11.716Z,11.63
2018-10-01T06:02:39.976Z,12.60
2018-10-01T06:05:08.128Z,9.83
2018-10-01T06:07:36.312Z,10.20
2018-10-01T06:10:04.595Z,12.70
2018-10-01T06:12:32.756Z,11.27
2018-10-01T06:15:01.036Z,10.47
2018-10-01T06:17:29.170Z,11.20
2018-10-01T06:19:57.456Z,10.50
2018-10-01T06:22:25.629Z,9.20
2018-10-01T06:24:53.789Z,13.17
2018-10-01T06:27:21.929Z,9.47
2018-10-01T06:29:50.069Z,8.97
2018-10-01T06:32:18.189Z,10.53
2018-10-01T06:34:46.410Z,9.30
2018-10-01T06:37:14.552Z,12.77
2018-10-01T06:39:42.781Z,13.60
2018-10-01T06:42:11.192Z,12.90
2018-10-01T06:44:39.359Z,10.60
2018-10-01T06:47:07.619Z,9.80
2018-10-01T06:49:35.860Z,6.63
2018-10-01T06:52:04.067Z,8.93
2018-10-01T06:54:32.179Z,10.03
2018-10-01T06:57:00.439Z,11.73
2018-10-01T06:59:28.759Z,5.80
2018-10-01T07:01:57.019Z,9.07
2018-10-01T07:04:25.199Z,8.57
2018-10-01T07:06:53.363Z,11.87
2018-10-01T07:09:21.619Z,7.80
2018-10-01T07:11:49.799Z,9.00
2018-10-01T07:14:18.039Z,8.77
2018-10-01T07:16:46.219Z,6.73
2018-10-01T07:19:14.446Z,7.43
2018-10-01T07:21:42.687Z,8.43
2018-10-01T07:24:11.220Z,6.93
2018-10-01T07:26:39.402Z,9.40
2018-10-01T07:29:07.507Z,8.70
2018-10-01T07:31:35.738Z,9.70
2018-10-01T07:34:03.928Z,4.73
2018-10-01T07:36:32.128Z,5.60
2018-10-01T07:39:00.431Z,8.70
2018-10-01T07:41:28.672Z,6.67
2018-10-01T07:43:56.795Z,4.13
2018-10-01T07:46:25.030Z,3.97
2018-10-01T07:48:53.315Z,4.67
2018-10-01T07:51:21.576Z,4.83
2018-10-01T07:53:49.835Z,8.00
2018-10-01T07:56:21.036Z,6.90
2018-10-01T07:58:49.216Z,7.13
2018-10-01T08:01:23.917Z,4.27
2018-10-01T08:03:52.116Z,7.53
2018-10-01T08:06:20.418Z,6.30
2018-10-01T08:08:48.564Z,5.57
2018-10-01T08:11:16.759Z,3.97
2018-10-01T08:13:44.985Z,4.43
2018-10-01T08:16:13.196Z,4.73
2018-10-01T08:18:41.447Z,4.63
2018-10-01T08:21:09.636Z,4.90
2018-10-01T08:23:37.842Z,6.23
2018-10-01T08:26:06.164Z,5.20
2018-10-01T08:28:34.444Z,4.70
2018-10-01T08:31:02.692Z,4.07
2018-10-01T08:33:30.804Z,5.03
2018-10-01T08:35:59.104Z,5.10
2018-10-01T08:38:27.297Z,6.83
2018-10-01T08:40:55.639Z,8.27
2018-10-01T08:43:24.028Z,6.63
2018-10-01T08:45:52.240Z,5.23
2018-10-01T08:48:21.348Z,5.60
2018-10-01T08:50:53.327Z,3.67
2018-10-01T08:53:26.940Z,3.03
2018-10-01T08:55:55.222Z,4.50
2018-10-01T08:58:23.400Z,5.20
2018-10-01T09:00:51.820Z,6.13
2018-10-01T09:03:20.000Z,6.53
2018-10-01T09:05:48.440Z,5.77
2018-10-01T09:08:16.651Z,6.50
2018-10-01T09:10:44.868Z,5.70
2018-10-01T09:13:13.080Z,5.43
2018-10-01T09:15:41.328Z,5.17
2018-10-01T09:18:09.428Z,6.23
2018-10-01T09:20:37.777Z,4.33
2018-10-01T09:23:05.958Z,5.70
2018-10-01T09:25:34.239Z,4.20
2018-10-01T09:28:02.541Z,6.40
2018-10-01T09:30:30.708Z,4.67
2018-10-01T09:32:59.568Z,4.57
2018-10-01T09:35:27.854Z,9.10
2018-10-01T09:37:56.143Z,5.93
2018-10-01T09:40:24.326Z,5.63
2018-10-01T09:42:52.547Z,5.37
2018-10-01T09:45:20.808Z,4.27
2018-10-01T09:47:49.106Z,2.90
2018-10-01T09:50:17.532Z,3.73
2018-10-01T09:52:45.759Z,3.83
2018-10-01T09:55:14.079Z,4.93
2018-10-01T09:57:42.239Z,7.10
2018-10-01T10:00:11.000Z,7.73
2018-10-01T10:02:39.233Z,2.10
2018-10-01T10:05:07.802Z,3.03
2018-10-01T10:07:35.984Z,2.77
2018-10-01T10:10:04.295Z,3.33
2018-10-01T10:12:32.572Z,4.53
2018-10-01T10:15:00.795Z,2.37
2018-10-01T10:17:29.001Z,3.30
2018-10-01T10:19:57.162Z,3.57
2018-10-01T10:22:25.406Z,5.00
2018-10-01T10:24:53.582Z,3.83
2018-10-01T10:27:21.748Z,5.30
2018-10-01T10:29:49.907Z,4.07
2018-10-01T10:32:18.170Z,1.30
2018-10-01T10:34:46.427Z,4.67
2018-10-01T10:37:14.868Z,2.27
2018-10-01T10:39:43.008Z,2.80
2018-10-01T10:42:11.227Z,5.43
2018-10-01T10:44:39.433Z,2.67
2018-10-01T10:47:07.605Z,8.20
2018-10-01T10:49:35.734Z,4.43
2018-10-01T10:52:04.834Z,7.67
2018-10-01T10:54:32.965Z,4.43
2018-10-01T10:57:01.520Z,1.77
2018-10-01T10:59:30.230Z,1.90
2018-10-01T11:01:58.571Z,4.03
2018-10-01T11:04:26.733Z,5.70
2018-10-01T11:06:54.881Z,2.87
2018-10-01T11:09:23.214Z,4.80
2018-10-01T11:11:51.368Z,3.57
2018-10-01T11:14:19.669Z,4.93
2018-10-01T11:16:47.878Z,2.13
2018-10-01T11:19:16.333Z,2.03
2018-10-01T11:21:44.715Z,2.93
2018-10-01T11:24:12.754Z,3.27
2018-10-01T11:26:40.990Z,2.00
2018-10-01T11:29:09.248Z,4.23
2018-10-01T11:31:37.417Z,1.90
2018-10-01T11:34:05.649Z,3.43
2018-10-01T11:36:33.776Z,2.13
2018-10-01T11:39:02.024Z,1.77
2018-10-01T11:41:30.289Z,1.43
2018-10-01T11:43:58.708Z,1.17
2018-10-01T11:46:26.871Z,4.53
2018-10-01T11:48:55.089Z,0.53
2018-10-01T11:51:23.295Z,4.47
2018-10-01T11:53:51.469Z,1.57
2018-10-01T11:56:19.777Z,1.30
2018-10-01T11:58:47.997Z,0.30
2018-10-01T12:01:16.149Z,4.03
2018-10-01T12:50:29.071Z,2.57
2018-10-01T12:53:06.366Z,4.10
2018-10-01T14:38:16.747Z,2.77
2018-10-01T15:11:27.369Z,5.77
2018-10-01T15:13:55.647Z,3.17
2018-10-01T19:43:37.276Z,4.43
2018-10-01T19:46:05.852Z,5.63
2018-10-01T19:48:34.488Z,7.77
2018-10-01T19:51:03.061Z,5.63
2018-10-01T19:53:31.669Z,4.50
2018-10-01T19:56:00.329Z,2.47
2018-10-01T19:58:29.152Z,3.00
2018-10-01T20:00:58.748Z,3.03
2018-10-01T20:03:27.421Z,2.57
2018-10-01T20:05:56.029Z,3.37
2018-10-01T20:08:24.748Z,3.53
2018-10-01T20:10:53.442Z,4.17
2018-10-01T20:13:22.483Z,4.37
2018-10-01T20:15:50.937Z,5.50
2018-10-01T20:18:19.475Z,4.60
2018-10-01T20:20:47.968Z,6.40
2018-10-01T20:23:16.633Z,4.57
2018-10-01T20:25:45.087Z,3.77
2018-10-01T20:28:13.696Z,4.77
2018-10-01T20:30:42.193Z,4.63
2018-10-01T20:33:10.621Z,6.23
2018-10-01T20:35:39.183Z,5.77
2018-10-01T20:38:07.702Z,4.50
2018-10-01T20:40:36.543Z,4.07
2018-10-01T20:43:05.041Z,5.53
2018-10-01T20:45:33.555Z,5.70
2018-10-01T20:48:02.068Z,4.50
2018-10-01T20:50:30.457Z,6.47
2018-10-01T20:52:59.428Z,3.50
2018-10-01T20:55:28.126Z,7.13
2018-10-01T20:57:56.144Z,5.07
2018-10-01T21:00:24.491Z,3.40
2018-10-01T21:02:52.451Z,4.73
2018-10-01T21:05:20.421Z,6.93
2018-10-01T21:07:48.581Z,7.13
2018-10-01T21:10:16.546Z,5.03
2018-10-01T21:12:44.540Z,9.93
2018-10-01T21:15:15.046Z,5.43
2018-10-01T21:17:43.096Z,6.70
2018-10-01T21:20:12.281Z,7.67
2018-10-01T21:22:40.356Z,6.73
2018-10-01T21:25:08.331Z,7.77
2018-10-01T21:27:36.673Z,5.63
2018-10-01T21:30:05.305Z,5.23
2018-10-01T21:32:33.298Z,5.97
2018-10-01T21:35:01.693Z,2.97
2018-10-01T21:37:29.686Z,5.37
2018-10-01T21:40:00.993Z,7.80
2018-10-01T21:42:29.700Z,7.33
2018-10-01T21:44:58.408Z,5.10
2018-10-01T21:47:27.247Z,5.50
2018-10-01T21:49:55.636Z,2.70
2018-10-01T21:52:24.781Z,5.80
2018-10-01T21:54:52.891Z,5.07
2018-10-01T21:57:21.031Z,4.43
2018-10-01T21:59:50.232Z,4.60
2018-10-01T22:02:18.246Z,7.10
2018-10-01T22:04:46.222Z,6.47
2018-10-01T22:07:15.036Z,6.03
2018-10-01T22:09:43.021Z,4.83
2018-10-01T22:12:10.942Z,4.07
2018-10-01T22:14:39.021Z,5.80
2018-10-01T22:17:07.012Z,8.40
2018-10-01T22:19:35.101Z,8.83
2018-10-01T22:22:03.546Z,5.70
2018-10-01T22:24:31.636Z,11.00
2018-10-01T22:27:00.136Z,6.27
2018-10-01T22:29:28.136Z,4.53
2018-10-01T22:31:56.146Z,9.60
2018-10-01T22:34:24.393Z,8.33
2018-10-01T22:36:53.214Z,5.43
2018-10-01T22:39:21.256Z,6.80
2018-10-01T22:41:49.601Z,9.37
2018-10-01T22:44:17.680Z,11.13
2018-10-01T22:46:45.671Z,6.93
2018-10-01T22:49:13.592Z,6.07
2018-10-01T22:51:41.876Z,8.07
2018-10-01T22:54:09.799Z,12.23
2018-10-01T22:56:37.771Z,4.97
2018-10-01T22:59:05.789Z,5.90
2018-10-01T23:01:33.790Z,10.53
2018-10-01T23:04:01.776Z,7.67
2018-10-01T23:06:29.777Z,6.23
2018-10-01T23:08:57.693Z,6.80
2018-10-01T23:11:25.758Z,7.77
2018-10-01T23:13:53.783Z,5.83
2018-10-01T23:16:21.805Z,6.87
2018-10-01T23:18:49.756Z,6.13
2018-10-01T23:21:17.695Z,11.57
2018-10-01T23:26:34.043Z,13.60
2018-10-01T23:29:02.019Z,6.67
2018-10-01T23:31:30.093Z,8.60
2018-10-01T23:33:58.098Z,4.87
2018-10-01T23:36:26.073Z,13.13
2018-10-01T23:38:54.079Z,8.87
2018-10-01T23:41:22.129Z,6.67
2018-10-01T23:43:50.048Z,7.03
2018-10-01T23:46:18.106Z,11.00
2018-10-01T23:48:46.074Z,9.70
2018-10-01T23:51:14.125Z,9.37
2018-10-01T23:53:42.304Z,7.50
2018-10-01T23:56:10.296Z,6.63
2018-10-01T23:58:38.341Z,11.27
